sensor_id;sensor_type;location;lat;lon;timestamp;temperature;humidity
12434;DHT22;6281;49.038;8.372;2023-04-24T00:02:07;11.60;99.90
12434;DHT22;6281;49.038;8.372;2023-04-24T00:04:36;11.60;99.90
12434;DHT22;6281;49.038;8.372;2023-04-24T00:07:05;11.70;99.90
12434;DHT22;6281;49.038;8.372;2023-04-24T00:09:34;11.70;99.90
12434;DHT22;6281;49.038;8.372;2023-04-24T00:12:00;11.80;99.90
12434;DHT22;6281;49.038;8.372;2023-04-24T00:14:29;11.90;99.90
12434;DHT22;6281;49.038;8.372;2023-04-24T00:16:56;11.90;99.90
12434;DHT22;6281;49.038;8.372;2023-04-24T00:19:23;11.90;99.90
12434;DHT22;6281;49.038;8.372;2023-04-24T00:21:50;11.90;99.90
12434;DHT22;6281;49.038;8.372;2023-04-24T00:24:17;11.90;99.90
12434;DHT22;6281;49.038;8.372;2023-04-24T00:26:46;12.00;99.90
12434;DHT22;6281;49.038;8.372;2023-04-24T00:29:13;12.10;99.90
12434;DHT22;6281;49.038;8.372;2023-04-24T00:31:40;11.90;99.90
12434;DHT22;6281;49.038;8.372;2023-04-24T00:34:07;11.90;99.90
12434;DHT22;6281;49.038;8.372;2023-04-24T00:36:34;11.90;99.90
12434;DHT22;6281;49.038;8.372;2023-04-24T00:39:01;11.90;99.90
12434;DHT22;6281;49.038;8.372;2023-04-24T00:41:28;11.90;99.90
12434;DHT22;6281;49.038;8.372;2023-04-24T00:43:56;11.90;99.90
12434;DHT22;6281;49.038;8.372;2023-04-24T00:46:23;11.80;99.90
12434;DHT22;6281;49.038;8.372;2023-04-24T00:49:08;11.80;99.90
12434;DHT22;6281;49.038;8.372;2023-04-24T00:51:35;11.90;99.90
12434;DHT22;6281;49.038;8.372;2023-04-24T00:54:02;12.00;99.90
12434;DHT22;6281;49.038;8.372;2023-04-24T00:56:30;12.00;99.90
12434;DHT22;6281;49.038;8.372;2023-04-24T00:58:58;11.90;99.90
12434;DHT22;6281;49.038;8.372;2023-04-24T01:01:25;11.90;99.90
12434;DHT22;6281;49.038;8.372;2023-04-24T01:03:52;11.80;99.90
12434;DHT22;6281;49.038;8.372;2023-04-24T01:06:20;11.80;99.90
12434;DHT22;6281;49.038;8.372;2023-04-24T01:08:47;11.90;99.90
12434;DHT22;6281;49.038;8.372;2023-04-24T01:11:15;11.80;99.90
12434;DHT22;6281;49.038;8.372;2023-04-24T01:13:42;11.70;99.90
12434;DHT22;6281;49.038;8.372;2023-04-24T01:16:10;11.80;99.90
12434;DHT22;6281;49.038;8.372;2023-04-24T01:18:37;11.90;99.90
12434;DHT22;6281;49.038;8.372;2023-04-24T01:21:04;11.80;99.90
12434;DHT22;6281;49.038;8.372;2023-04-24T01:23:33;11.70;99.90
12434;DHT22;6281;49.038;8.372;2023-04-24T01:26:01;11.70;99.90
12434;DHT22;6281;49.038;8.372;2023-04-24T01:28:28;11.80;99.90
12434;DHT22;6281;49.038;8.372;2023-04-24T01:30:54;11.90;99.90
12434;DHT22;6281;49.038;8.372;2023-04-24T01:33:22;11.80;99.90
12434;DHT22;6281;49.038;8.372;2023-04-24T01:35:49;11.90;99.90
12434;DHT22;6281;49.038;8.372;2023-04-24T01:38:16;11.90;99.90
12434;DHT22;6281;49.038;8.372;2023-04-24T01:40:44;11.90;99.90
12434;DHT22;6281;49.038;8.372;2023-04-24T01:43:11;11.90;99.90
12434;DHT22;6281;49.038;8.372;2023-04-24T01:45:38;11.90;99.90
12434;DHT22;6281;49.038;8.372;2023-04-24T01:48:05;11.90;99.90
12434;DHT22;6281;49.038;8.372;2023-04-24T01:50:32;11.90;99.90
12434;DHT22;6281;49.038;8.372;2023-04-24T01:52:59;11.80;99.90
12434;DHT22;6281;49.038;8.372;2023-04-24T01:55:26;11.80;99.90
12434;DHT22;6281;49.038;8.372;2023-04-24T01:57:55;11.70;99.90
12434;DHT22;6281;49.038;8.372;2023-04-24T02:00:23;11.60;99.90
12434;DHT22;6281;49.038;8.372;2023-04-24T02:02:50;11.70;99.90
12434;DHT22;6281;49.038;8.372;2023-04-24T02:05:16;11.60;99.90
12434;DHT22;6281;49.038;8.372;2023-04-24T02:07:43;11.60;99.90
12434;DHT22;6281;49.038;8.372;2023-04-24T02:10:10;11.50;99.90
12434;DHT22;6281;49.038;8.372;2023-04-24T02:12:37;11.60;99.90
12434;DHT22;6281;49.038;8.372;2023-04-24T02:15:06;11.40;99.90
12434;DHT22;6281;49.038;8.372;2023-04-24T02:17:33;11.50;99.90
12434;DHT22;6281;49.038;8.372;2023-04-24T02:20:00;11.40;99.90
12434;DHT22;6281;49.038;8.372;2023-04-24T02:22:27;11.50;99.90
12434;DHT22;6281;49.038;8.372;2023-04-24T02:24:55;11.60;99.90
12434;DHT22;6281;49.038;8.372;2023-04-24T02:27:22;11.70;99.90
12434;DHT22;6281;49.038;8.372;2023-04-24T02:29:49;11.70;99.90
12434;DHT22;6281;49.038;8.372;2023-04-24T02:32:17;11.60;99.90
12434;DHT22;6281;49.038;8.372;2023-04-24T02:34:44;11.60;99.90
12434;DHT22;6281;49.038;8.372;2023-04-24T02:37:11;11.70;99.90
12434;DHT22;6281;49.038;8.372;2023-04-24T02:39:38;11.70;99.90
12434;DHT22;6281;49.038;8.372;2023-04-24T02:42:05;11.60;99.90
12434;DHT22;6281;49.038;8.372;2023-04-24T02:44:33;11.40;99.90
12434;DHT22;6281;49.038;8.372;2023-04-24T02:47:00;11.50;99.90
12434;DHT22;6281;49.038;8.372;2023-04-24T02:49:28;11.40;99.90
12434;DHT22;6281;49.038;8.372;2023-04-24T02:51:55;11.50;99.90
12434;DHT22;6281;49.038;8.372;2023-04-24T02:54:22;11.40;99.90
12434;DHT22;6281;49.038;8.372;2023-04-24T02:56:49;11.40;99.90
12434;DHT22;6281;49.038;8.372;2023-04-24T02:59:16;11.30;99.90
12434;DHT22;6281;49.038;8.372;2023-04-24T03:01:43;11.20;99.90
12434;DHT22;6281;49.038;8.372;2023-04-24T03:04:10;11.30;99.90
12434;DHT22;6281;49.038;8.372;2023-04-24T03:06:39;11.10;99.90
12434;DHT22;6281;49.038;8.372;2023-04-24T03:09:06;11.10;99.90
12434;DHT22;6281;49.038;8.372;2023-04-24T03:11:33;11.10;99.90
12434;DHT22;6281;49.038;8.372;2023-04-24T03:14:00;10.90;99.90
12434;DHT22;6281;49.038;8.372;2023-04-24T03:16:26;10.90;99.90
12434;DHT22;6281;49.038;8.372;2023-04-24T03:18:54;10.90;99.90
12434;DHT22;6281;49.038;8.372;2023-04-24T03:21:20;10.90;99.90
12434;DHT22;6281;49.038;8.372;2023-04-24T03:23:49;10.90;99.90
12434;DHT22;6281;49.038;8.372;2023-04-24T03:26:16;10.90;99.90
12434;DHT22;6281;49.038;8.372;2023-04-24T03:28:43;11.00;99.90
12434;DHT22;6281;49.038;8.372;2023-04-24T03:31:10;11.10;99.90
12434;DHT22;6281;49.038;8.372;2023-04-24T03:33:37;11.00;99.90
12434;DHT22;6281;49.038;8.372;2023-04-24T03:36:04;10.90;99.90
12434;DHT22;6281;49.038;8.372;2023-04-24T03:38:31;10.60;99.90
12434;DHT22;6281;49.038;8.372;2023-04-24T03:40:59;10.60;99.90
12434;DHT22;6281;49.038;8.372;2023-04-24T03:43:27;10.50;99.90
12434;DHT22;6281;49.038;8.372;2023-04-24T03:45:54;10.70;99.90
12434;DHT22;6281;49.038;8.372;2023-04-24T03:48:21;10.70;99.90
12434;DHT22;6281;49.038;8.372;2023-04-24T03:50:48;10.80;99.90
12434;DHT22;6281;49.038;8.372;2023-04-24T03:53:15;10.60;99.90
12434;DHT22;6281;49.038;8.372;2023-04-24T03:55:42;10.70;99.90
12434;DHT22;6281;49.038;8.372;2023-04-24T03:58:10;10.60;99.90
12434;DHT22;6281;49.038;8.372;2023-04-24T04:00:37;10.50;99.90
12434;DHT22;6281;49.038;8.372;2023-04-24T04:03:05;10.40;99.90
12434;DHT22;6281;49.038;8.372;2023-04-24T04:05:32;10.50;99.90
12434;DHT22;6281;49.038;8.372;2023-04-24T04:07:59;10.50;99.90
12434;DHT22;6281;49.038;8.372;2023-04-24T04:10:26;10.50;99.90
12434;DHT22;6281;49.038;8.372;2023-04-24T04:12:53;10.40;99.90
12434;DHT22;6281;49.038;8.372;2023-04-24T04:15:21;10.30;99.90
12434;DHT22;6281;49.038;8.372;2023-04-24T04:17:48;10.10;99.90
12434;DHT22;6281;49.038;8.372;2023-04-24T04:20:15;10.10;99.90
12434;DHT22;6281;49.038;8.372;2023-04-24T04:22:42;10.30;99.90
12434;DHT22;6281;49.038;8.372;2023-04-24T04:25:09;10.10;99.90
12434;DHT22;6281;49.038;8.372;2023-04-24T04:27:36;10.00;99.90
12434;DHT22;6281;49.038;8.372;2023-04-24T04:30:05;10.00;99.90
12434;DHT22;6281;49.038;8.372;2023-04-24T04:32:33;10.00;99.90
12434;DHT22;6281;49.038;8.372;2023-04-24T04:35:01;9.80;99.90
12434;DHT22;6281;49.038;8.372;2023-04-24T04:37:28;9.90;99.90
12434;DHT22;6281;49.038;8.372;2023-04-24T04:39:55;9.80;99.90
12434;DHT22;6281;49.038;8.372;2023-04-24T04:42:23;9.70;99.90
12434;DHT22;6281;49.038;8.372;2023-04-24T04:44:50;9.70;99.90
12434;DHT22;6281;49.038;8.372;2023-04-24T04:47:17;9.70;99.90
12434;DHT22;6281;49.038;8.372;2023-04-24T04:49:45;9.60;99.90
12434;DHT22;6281;49.038;8.372;2023-04-24T04:52:13;9.60;99.90
12434;DHT22;6281;49.038;8.372;2023-04-24T04:54:42;9.60;99.90
12434;DHT22;6281;49.038;8.372;2023-04-24T04:57:09;9.60;99.90
12434;DHT22;6281;49.038;8.372;2023-04-24T04:59:36;9.60;99.90
12434;DHT22;6281;49.038;8.372;2023-04-24T05:02:03;9.70;99.90
12434;DHT22;6281;49.038;8.372;2023-04-24T05:04:30;9.70;99.90
12434;DHT22;6281;49.038;8.372;2023-04-24T05:06:58;9.70;99.90
12434;DHT22;6281;49.038;8.372;2023-04-24T05:09:25;9.60;99.90
12434;DHT22;6281;49.038;8.372;2023-04-24T05:11:52;9.70;99.90
12434;DHT22;6281;49.038;8.372;2023-04-24T05:14:19;9.80;99.90
12434;DHT22;6281;49.038;8.372;2023-04-24T05:16:47;10.00;99.90
12434;DHT22;6281;49.038;8.372;2023-04-24T05:19:14;10.10;99.90
12434;DHT22;6281;49.038;8.372;2023-04-24T05:21:41;10.30;99.90
12434;DHT22;6281;49.038;8.372;2023-04-24T05:24:09;10.20;99.90
12434;DHT22;6281;49.038;8.372;2023-04-24T05:26:36;10.20;99.90
12434;DHT22;6281;49.038;8.372;2023-04-24T05:29:03;10.40;99.90
12434;DHT22;6281;49.038;8.372;2023-04-24T05:31:30;10.50;99.90
12434;DHT22;6281;49.038;8.372;2023-04-24T05:33:57;10.30;99.90
12434;DHT22;6281;49.038;8.372;2023-04-24T05:36:24;10.30;99.90
12434;DHT22;6281;49.038;8.372;2023-04-24T05:38:52;10.30;99.90
12434;DHT22;6281;49.038;8.372;2023-04-24T05:41:21;10.40;99.90
12434;DHT22;6281;49.038;8.372;2023-04-24T05:43:48;10.50;99.90
12434;DHT22;6281;49.038;8.372;2023-04-24T05:46:14;10.50;99.90
12434;DHT22;6281;49.038;8.372;2023-04-24T05:48:41;10.40;99.90
12434;DHT22;6281;49.038;8.372;2023-04-24T05:51:09;10.40;99.90
12434;DHT22;6281;49.038;8.372;2023-04-24T05:53:36;10.50;99.90
12434;DHT22;6281;49.038;8.372;2023-04-24T05:56:03;10.50;99.90
12434;DHT22;6281;49.038;8.372;2023-04-24T05:58:31;10.60;99.90
12434;DHT22;6281;49.038;8.372;2023-04-24T06:00:58;10.60;99.90
12434;DHT22;6281;49.038;8.372;2023-04-24T06:03:26;10.60;99.90
12434;DHT22;6281;49.038;8.372;2023-04-24T06:05:56;10.50;99.90
12434;DHT22;6281;49.038;8.372;2023-04-24T06:08:23;10.50;99.90
12434;DHT22;6281;49.038;8.372;2023-04-24T06:10:51;10.60;99.90
12434;DHT22;6281;49.038;8.372;2023-04-24T06:13:18;10.60;99.90
12434;DHT22;6281;49.038;8.372;2023-04-24T06:15:46;10.60;99.90
12434;DHT22;6281;49.038;8.372;2023-04-24T06:18:15;10.60;99.90
12434;DHT22;6281;49.038;8.372;2023-04-24T06:20:42;10.70;99.90
12434;DHT22;6281;49.038;8.372;2023-04-24T06:23:08;10.60;99.90
12434;DHT22;6281;49.038;8.372;2023-04-24T06:25:35;10.80;99.90
12434;DHT22;6281;49.038;8.372;2023-04-24T06:28:03;10.80;99.90
12434;DHT22;6281;49.038;8.372;2023-04-24T06:30:30;10.60;99.90
12434;DHT22;6281;49.038;8.372;2023-04-24T06:32:58;10.60;99.90
12434;DHT22;6281;49.038;8.372;2023-04-24T06:35:25;10.60;99.90
12434;DHT22;6281;49.038;8.372;2023-04-24T06:37:52;10.60;99.90
12434;DHT22;6281;49.038;8.372;2023-04-24T06:40:21;10.70;99.90
12434;DHT22;6281;49.038;8.372;2023-04-24T06:42:48;10.70;99.90
12434;DHT22;6281;49.038;8.372;2023-04-24T06:45:15;10.70;99.90
12434;DHT22;6281;49.038;8.372;2023-04-24T06:47:42;10.90;99.90
12434;DHT22;6281;49.038;8.372;2023-04-24T06:50:10;11.10;99.90
12434;DHT22;6281;49.038;8.372;2023-04-24T06:52:38;11.00;99.90
12434;DHT22;6281;49.038;8.372;2023-04-24T06:55:05;10.90;99.90
12434;DHT22;6281;49.038;8.372;2023-04-24T06:57:32;10.80;99.90
12434;DHT22;6281;49.038;8.372;2023-04-24T06:59:59;10.80;99.90
12434;DHT22;6281;49.038;8.372;2023-04-24T07:02:26;11.00;99.90
12434;DHT22;6281;49.038;8.372;2023-04-24T07:04:53;11.00;99.90
12434;DHT22;6281;49.038;8.372;2023-04-24T07:07:22;11.10;99.90
12434;DHT22;6281;49.038;8.372;2023-04-24T07:09:49;11.20;99.90
12434;DHT22;6281;49.038;8.372;2023-04-24T07:12:16;11.30;99.90
12434;DHT22;6281;49.038;8.372;2023-04-24T07:14:46;11.20;99.90
12434;DHT22;6281;49.038;8.372;2023-04-24T07:17:12;11.20;99.90
12434;DHT22;6281;49.038;8.372;2023-04-24T07:19:40;10.90;99.90
12434;DHT22;6281;49.038;8.372;2023-04-24T07:22:07;11.00;99.90
12434;DHT22;6281;49.038;8.372;2023-04-24T07:24:35;10.90;99.90
12434;DHT22;6281;49.038;8.372;2023-04-24T07:27:04;10.90;99.90
12434;DHT22;6281;49.038;8.372;2023-04-24T07:29:31;11.00;99.90
12434;DHT22;6281;49.038;8.372;2023-04-24T07:31:58;11.30;99.90
12434;DHT22;6281;49.038;8.372;2023-04-24T07:34:25;11.50;99.90
12434;DHT22;6281;49.038;8.372;2023-04-24T07:36:51;11.50;99.90
12434;DHT22;6281;49.038;8.372;2023-04-24T07:39:18;11.50;99.90
12434;DHT22;6281;49.038;8.372;2023-04-24T07:41:47;11.50;99.90
12434;DHT22;6281;49.038;8.372;2023-04-24T07:44:14;11.60;99.90
12434;DHT22;6281;49.038;8.372;2023-04-24T07:46:41;11.40;99.90
12434;DHT22;6281;49.038;8.372;2023-04-24T07:49:08;11.50;99.90
12434;DHT22;6281;49.038;8.372;2023-04-24T07:51:35;11.50;99.90
12434;DHT22;6281;49.038;8.372;2023-04-24T07:54:03;11.20;99.90
12434;DHT22;6281;49.038;8.372;2023-04-24T07:56:31;11.00;99.90
12434;DHT22;6281;49.038;8.372;2023-04-24T07:58:59;10.60;99.90
12434;DHT22;6281;49.038;8.372;2023-04-24T08:01:27;10.10;99.90
12434;DHT22;6281;49.038;8.372;2023-04-24T08:03:54;9.90;99.90
12434;DHT22;6281;49.038;8.372;2023-04-24T08:06:21;10.00;99.90
12434;DHT22;6281;49.038;8.372;2023-04-24T08:08:48;10.00;99.90
12434;DHT22;6281;49.038;8.372;2023-04-24T08:11:17;10.20;99.90
12434;DHT22;6281;49.038;8.372;2023-04-24T08:13:44;10.20;99.90
12434;DHT22;6281;49.038;8.372;2023-04-24T08:16:12;10.30;99.90
12434;DHT22;6281;49.038;8.372;2023-04-24T08:18:40;10.60;99.90
12434;DHT22;6281;49.038;8.372;2023-04-24T08:21:06;10.60;99.90
12434;DHT22;6281;49.038;8.372;2023-04-24T08:23:34;11.00;99.90
12434;DHT22;6281;49.038;8.372;2023-04-24T08:26:00;11.00;99.90
12434;DHT22;6281;49.038;8.372;2023-04-24T08:28:28;10.90;99.90
12434;DHT22;6281;49.038;8.372;2023-04-24T08:30:55;10.80;99.90
12434;DHT22;6281;49.038;8.372;2023-04-24T08:33:24;10.90;99.90
12434;DHT22;6281;49.038;8.372;2023-04-24T08:35:52;11.00;99.90
12434;DHT22;6281;49.038;8.372;2023-04-24T08:38:19;10.70;99.90
12434;DHT22;6281;49.038;8.372;2023-04-24T08:40:47;10.80;99.90
12434;DHT22;6281;49.038;8.372;2023-04-24T08:43:15;11.10;99.90
12434;DHT22;6281;49.038;8.372;2023-04-24T08:45:42;11.10;99.90
12434;DHT22;6281;49.038;8.372;2023-04-24T08:48:10;11.00;99.90
12434;DHT22;6281;49.038;8.372;2023-04-24T08:50:38;11.20;99.90
12434;DHT22;6281;49.038;8.372;2023-04-24T08:53:08;11.70;99.90
12434;DHT22;6281;49.038;8.372;2023-04-24T08:55:35;11.50;99.90
12434;DHT22;6281;49.038;8.372;2023-04-24T08:58:04;11.80;99.90
12434;DHT22;6281;49.038;8.372;2023-04-24T09:00:31;11.90;99.90
12434;DHT22;6281;49.038;8.372;2023-04-24T09:03:00;11.70;99.90
12434;DHT22;6281;49.038;8.372;2023-04-24T09:05:28;11.90;99.90
12434;DHT22;6281;49.038;8.372;2023-04-24T09:07:57;11.80;99.90
12434;DHT22;6281;49.038;8.372;2023-04-24T09:10:25;11.80;99.90
12434;DHT22;6281;49.038;8.372;2023-04-24T09:12:53;11.80;99.90
12434;DHT22;6281;49.038;8.372;2023-04-24T09:15:20;11.50;99.90
12434;DHT22;6281;49.038;8.372;2023-04-24T09:17:48;11.20;99.90
12434;DHT22;6281;49.038;8.372;2023-04-24T09:20:15;11.10;99.90
12434;DHT22;6281;49.038;8.372;2023-04-24T09:22:42;11.00;99.90
12434;DHT22;6281;49.038;8.372;2023-04-24T09:25:10;10.90;99.90
12434;DHT22;6281;49.038;8.372;2023-04-24T09:27:43;11.00;99.90
12434;DHT22;6281;49.038;8.372;2023-04-24T09:30:12;11.10;99.90
12434;DHT22;6281;49.038;8.372;2023-04-24T09:32:39;11.20;99.90
12434;DHT22;6281;49.038;8.372;2023-04-24T09:35:09;11.20;99.90
12434;DHT22;6281;49.038;8.372;2023-04-24T09:37:37;11.10;99.90
12434;DHT22;6281;49.038;8.372;2023-04-24T09:40:16;11.00;99.90
12434;DHT22;6281;49.038;8.372;2023-04-24T09:42:44;11.00;99.90
12434;DHT22;6281;49.038;8.372;2023-04-24T09:45:12;11.20;99.90
12434;DHT22;6281;49.038;8.372;2023-04-24T09:47:39;11.30;99.90
12434;DHT22;6281;49.038;8.372;2023-04-24T09:50:11;11.20;99.90
12434;DHT22;6281;49.038;8.372;2023-04-24T09:52:43;11.40;99.90
12434;DHT22;6281;49.038;8.372;2023-04-24T09:55:11;11.40;99.90
12434;DHT22;6281;49.038;8.372;2023-04-24T09:57:48;11.60;99.90
12434;DHT22;6281;49.038;8.372;2023-04-24T10:00:20;11.60;99.90
12434;DHT22;6281;49.038;8.372;2023-04-24T10:02:54;11.80;99.90
12434;DHT22;6281;49.038;8.372;2023-04-24T10:05:27;12.30;99.90
12434;DHT22;6281;49.038;8.372;2023-04-24T10:08:00;12.10;99.90
12434;DHT22;6281;49.038;8.372;2023-04-24T10:10:28;12.50;99.90
12434;DHT22;6281;49.038;8.372;2023-04-24T10:12:56;11.90;99.90
12434;DHT22;6281;49.038;8.372;2023-04-24T10:15:24;11.70;99.90
12434;DHT22;6281;49.038;8.372;2023-04-24T10:17:54;11.80;99.90
12434;DHT22;6281;49.038;8.372;2023-04-24T10:20:22;11.80;99.90
12434;DHT22;6281;49.038;8.372;2023-04-24T10:22:50;11.60;99.90
12434;DHT22;6281;49.038;8.372;2023-04-24T10:25:19;11.40;99.90
12434;DHT22;6281;49.038;8.372;2023-04-24T10:27:48;11.50;99.90
12434;DHT22;6281;49.038;8.372;2023-04-24T10:30:17;11.50;99.90
12434;DHT22;6281;49.038;8.372;2023-04-24T10:32:45;11.40;99.90
12434;DHT22;6281;49.038;8.372;2023-04-24T10:35:13;11.40;99.90
12434;DHT22;6281;49.038;8.372;2023-04-24T10:37:44;11.20;99.90
12434;DHT22;6281;49.038;8.372;2023-04-24T10:40:17;11.20;99.90
12434;DHT22;6281;49.038;8.372;2023-04-24T10:42:47;11.30;99.90
12434;DHT22;6281;49.038;8.372;2023-04-24T10:45:23;11.30;99.90
12434;DHT22;6281;49.038;8.372;2023-04-24T10:47:52;11.40;99.90
12434;DHT22;6281;49.038;8.372;2023-04-24T10:50:19;11.30;99.90
12434;DHT22;6281;49.038;8.372;2023-04-24T10:52:46;11.70;99.90
12434;DHT22;6281;49.038;8.372;2023-04-24T10:55:14;12.00;99.90
12434;DHT22;6281;49.038;8.372;2023-04-24T10:58:01;11.90;99.90
12434;DHT22;6281;49.038;8.372;2023-04-24T11:00:30;11.70;99.90
12434;DHT22;6281;49.038;8.372;2023-04-24T11:02:57;11.60;99.90
12434;DHT22;6281;49.038;8.372;2023-04-24T11:05:49;11.70;99.90
12434;DHT22;6281;49.038;8.372;2023-04-24T11:08:22;11.60;99.90
12434;DHT22;6281;49.038;8.372;2023-04-24T11:10:59;11.30;99.90
12434;DHT22;6281;49.038;8.372;2023-04-24T11:16:26;11.50;99.90
12434;DHT22;6281;49.038;8.372;2023-04-24T11:19:00;11.40;99.90
12434;DHT22;6281;49.038;8.372;2023-04-24T11:21:31;11.50;99.90
12434;DHT22;6281;49.038;8.372;2023-04-24T11:23:58;11.20;99.90
12434;DHT22;6281;49.038;8.372;2023-04-24T11:26:25;11.00;99.90
12434;DHT22;6281;49.038;8.372;2023-04-24T11:29:06;10.60;99.90
12434;DHT22;6281;49.038;8.372;2023-04-24T11:31:37;11.00;99.90
12434;DHT22;6281;49.038;8.372;2023-04-24T11:34:11;11.40;99.90
12434;DHT22;6281;49.038;8.372;2023-04-24T11:36:39;11.70;99.90
12434;DHT22;6281;49.038;8.372;2023-04-24T11:39:06;12.10;99.90
12434;DHT22;6281;49.038;8.372;2023-04-24T11:41:33;12.40;99.90
12434;DHT22;6281;49.038;8.372;2023-04-24T11:44:01;12.30;99.90
12434;DHT22;6281;49.038;8.372;2023-04-24T11:46:29;11.90;99.90
12434;DHT22;6281;49.038;8.372;2023-04-24T11:48:59;11.90;99.90
12434;DHT22;6281;49.038;8.372;2023-04-24T11:51:27;12.20;99.90
12434;DHT22;6281;49.038;8.372;2023-04-24T11:53:55;12.60;99.90
12434;DHT22;6281;49.038;8.372;2023-04-24T11:56:23;12.70;99.90
12434;DHT22;6281;49.038;8.372;2023-04-24T11:58:52;13.50;99.90
12434;DHT22;6281;49.038;8.372;2023-04-24T12:01:23;14.00;99.90
12434;DHT22;6281;49.038;8.372;2023-04-24T12:03:50;14.10;99.90
12434;DHT22;6281;49.038;8.372;2023-04-24T12:06:22;14.40;99.90
12434;DHT22;6281;49.038;8.372;2023-04-24T12:08:52;14.00;99.90
12434;DHT22;6281;49.038;8.372;2023-04-24T12:11:23;14.40;99.90
12434;DHT22;6281;49.038;8.372;2023-04-24T12:13:51;14.00;99.90
12434;DHT22;6281;49.038;8.372;2023-04-24T12:16:18;13.20;99.90
12434;DHT22;6281;49.038;8.372;2023-04-24T12:18:46;13.30;99.90
12434;DHT22;6281;49.038;8.372;2023-04-24T12:21:17;12.70;99.90
12434;DHT22;6281;49.038;8.372;2023-04-24T12:23:45;13.10;99.90
12434;DHT22;6281;49.038;8.372;2023-04-24T12:26:16;12.80;99.90
12434;DHT22;6281;49.038;8.372;2023-04-24T12:28:45;13.30;99.90
12434;DHT22;6281;49.038;8.372;2023-04-24T12:31:12;13.50;99.90
12434;DHT22;6281;49.038;8.372;2023-04-24T12:33:39;12.90;99.90
12434;DHT22;6281;49.038;8.372;2023-04-24T12:36:06;12.80;99.90
12434;DHT22;6281;49.038;8.372;2023-04-24T12:38:38;13.10;99.90
12434;DHT22;6281;49.038;8.372;2023-04-24T12:41:10;13.30;99.90
12434;DHT22;6281;49.038;8.372;2023-04-24T12:43:37;13.20;99.90
12434;DHT22;6281;49.038;8.372;2023-04-24T12:46:04;13.20;99.90
12434;DHT22;6281;49.038;8.372;2023-04-24T12:48:31;13.60;99.90
12434;DHT22;6281;49.038;8.372;2023-04-24T12:51:13;13.40;99.90
12434;DHT22;6281;49.038;8.372;2023-04-24T12:53:40;13.70;99.90
12434;DHT22;6281;49.038;8.372;2023-04-24T12:56:09;13.50;99.90
12434;DHT22;6281;49.038;8.372;2023-04-24T12:58:38;13.00;99.90
12434;DHT22;6281;49.038;8.372;2023-04-24T13:01:05;12.80;99.90
12434;DHT22;6281;49.038;8.372;2023-04-24T13:03:32;12.70;99.90
12434;DHT22;6281;49.038;8.372;2023-04-24T13:05:59;12.80;99.90
12434;DHT22;6281;49.038;8.372;2023-04-24T13:08:26;12.80;99.90
12434;DHT22;6281;49.038;8.372;2023-04-24T13:10:53;12.70;99.90
12434;DHT22;6281;49.038;8.372;2023-04-24T13:13:24;12.80;99.90
12434;DHT22;6281;49.038;8.372;2023-04-24T13:15:51;13.00;99.90
12434;DHT22;6281;49.038;8.372;2023-04-24T13:18:18;13.40;99.90
12434;DHT22;6281;49.038;8.372;2023-04-24T13:20:44;14.00;99.90
12434;DHT22;6281;49.038;8.372;2023-04-24T13:23:12;14.20;99.90
12434;DHT22;6281;49.038;8.372;2023-04-24T13:25:40;13.80;99.90
12434;DHT22;6281;49.038;8.372;2023-04-24T13:28:07;13.80;99.90
12434;DHT22;6281;49.038;8.372;2023-04-24T13:30:36;13.10;99.90
12434;DHT22;6281;49.038;8.372;2023-04-24T13:33:03;13.00;99.90
12434;DHT22;6281;49.038;8.372;2023-04-24T13:35:30;13.00;99.90
12434;DHT22;6281;49.038;8.372;2023-04-24T13:37:57;13.10;99.90
12434;DHT22;6281;49.038;8.372;2023-04-24T13:40:25;13.10;99.90
12434;DHT22;6281;49.038;8.372;2023-04-24T13:42:52;13.10;99.90
12434;DHT22;6281;49.038;8.372;2023-04-24T13:45:19;13.00;99.90
12434;DHT22;6281;49.038;8.372;2023-04-24T13:47:47;13.10;99.90
12434;DHT22;6281;49.038;8.372;2023-04-24T13:50:14;13.00;99.90
12434;DHT22;6281;49.038;8.372;2023-04-24T13:52:47;13.30;99.90
12434;DHT22;6281;49.038;8.372;2023-04-24T13:55:17;13.30;99.90
12434;DHT22;6281;49.038;8.372;2023-04-24T14:01:19;13.10;99.90
12434;DHT22;6281;49.038;8.372;2023-04-24T14:07:03;13.20;99.90
12434;DHT22;6281;49.038;8.372;2023-04-24T14:09:30;13.50;99.90
12434;DHT22;6281;49.038;8.372;2023-04-24T14:11:57;13.30;99.90
12434;DHT22;6281;49.038;8.372;2023-04-24T14:14:27;13.30;99.90
12434;DHT22;6281;49.038;8.372;2023-04-24T14:17:10;13.40;99.90
12434;DHT22;6281;49.038;8.372;2023-04-24T14:19:43;12.80;99.90
12434;DHT22;6281;49.038;8.372;2023-04-24T14:22:10;12.90;99.90
12434;DHT22;6281;49.038;8.372;2023-04-24T14:24:40;13.90;99.90
12434;DHT22;6281;49.038;8.372;2023-04-24T14:27:15;14.30;99.90
12434;DHT22;6281;49.038;8.372;2023-04-24T14:29:45;13.70;99.90
12434;DHT22;6281;49.038;8.372;2023-04-24T14:32:12;14.70;99.90
12434;DHT22;6281;49.038;8.372;2023-04-24T14:34:42;14.50;99.90
12434;DHT22;6281;49.038;8.372;2023-04-24T14:37:09;13.40;99.90
12434;DHT22;6281;49.038;8.372;2023-04-24T14:39:36;13.40;99.90
12434;DHT22;6281;49.038;8.372;2023-04-24T14:42:03;13.50;99.90
12434;DHT22;6281;49.038;8.372;2023-04-24T14:44:30;13.60;99.90
12434;DHT22;6281;49.038;8.372;2023-04-24T14:46:58;13.60;99.90
12434;DHT22;6281;49.038;8.372;2023-04-24T14:49:25;13.30;99.90
12434;DHT22;6281;49.038;8.372;2023-04-24T14:51:54;13.20;99.90
12434;DHT22;6281;49.038;8.372;2023-04-24T14:54:21;14.00;99.90
12434;DHT22;6281;49.038;8.372;2023-04-24T14:56:48;14.10;99.90
12434;DHT22;6281;49.038;8.372;2023-04-24T14:59:16;14.20;99.90
12434;DHT22;6281;49.038;8.372;2023-04-24T15:01:43;13.70;99.90
12434;DHT22;6281;49.038;8.372;2023-04-24T15:04:11;13.70;99.90
12434;DHT22;6281;49.038;8.372;2023-04-24T15:06:38;13.50;99.90
12434;DHT22;6281;49.038;8.372;2023-04-24T15:09:07;13.90;99.90
12434;DHT22;6281;49.038;8.372;2023-04-24T15:11:34;13.50;99.90
12434;DHT22;6281;49.038;8.372;2023-04-24T15:14:01;13.30;99.90
12434;DHT22;6281;49.038;8.372;2023-04-24T15:16:28;13.30;99.90
12434;DHT22;6281;49.038;8.372;2023-04-24T15:18:55;13.20;99.90
12434;DHT22;6281;49.038;8.372;2023-04-24T15:21:22;12.70;99.90
12434;DHT22;6281;49.038;8.372;2023-04-24T15:23:49;12.80;99.90
12434;DHT22;6281;49.038;8.372;2023-04-24T15:26:17;13.20;99.90
12434;DHT22;6281;49.038;8.372;2023-04-24T15:28:45;12.80;99.90
12434;DHT22;6281;49.038;8.372;2023-04-24T15:31:12;12.90;99.90
12434;DHT22;6281;49.038;8.372;2023-04-24T15:33:39;12.70;99.90
12434;DHT22;6281;49.038;8.372;2023-04-24T15:36:06;12.70;99.90
12434;DHT22;6281;49.038;8.372;2023-04-24T15:38:33;12.70;99.90
12434;DHT22;6281;49.038;8.372;2023-04-24T15:41:00;13.00;99.90
12434;DHT22;6281;49.038;8.372;2023-04-24T15:43:29;12.50;99.90
12434;DHT22;6281;49.038;8.372;2023-04-24T15:45:59;12.40;99.90
12434;DHT22;6281;49.038;8.372;2023-04-24T15:48:27;12.80;99.90
12434;DHT22;6281;49.038;8.372;2023-04-24T15:50:54;12.60;99.90
12434;DHT22;6281;49.038;8.372;2023-04-24T15:53:21;12.50;99.90
12434;DHT22;6281;49.038;8.372;2023-04-24T15:55:48;12.70;99.90
12434;DHT22;6281;49.038;8.372;2023-04-24T15:58:16;12.60;99.90
12434;DHT22;6281;49.038;8.372;2023-04-24T16:00:45;12.50;99.90
12434;DHT22;6281;49.038;8.372;2023-04-24T16:03:12;13.20;99.90